Hebe — A8OH7 — position and weather

sailwx.info

Track history (hours):
 
Tides and Currents Weather Stations Pressure Air Temp Water Temp Dewpoint Dewpoint Depression Visibility Wind Speed Wind Dir Waves Ship Positions

Hebe

Last reported at 2014-Oct-13 03:33 UTC. Time now 2014-Oct-25 20:39 UTC.
Position N 49°40' W 000°30'.
Warning: this ship's position is 12 days out of date.

Length 220 m; draft 11.5 m.

Type: Ship. MMSI: 636091480.

Date/timePositionNaut miles runAvg speedWind from/ knotsBaromVisibWave heightAir tempDewpointWater temp
2014-Oct-13 03:33N 49°40' W 000°30'1817.6
2014-Oct-13 02:33N 49°31' W 000°07'1010.4
2014-Oct-13 01:33N 49°28' E 000°08'0 0.3
2014-Oct-13 00:31N 49°28' E 000°09'0 0.0
2014-Oct-12 23:33N 49°28' E 000°09'0 0.0
2014-Oct-12 22:33N 49°28' E 000°09'0 0.0
2014-Oct-12 21:32N 49°28' E 000°09'0 0.0
2014-Oct-12 20:32N 49°28' E 000°09'0 0.0
2014-Oct-12 19:31N 49°28' E 000°09'0 0.0
2014-Oct-12 18:31N 49°28' E 000°09'0 0.0
2014-Oct-12 17:34N 49°28' E 000°09'0 0.0
2014-Oct-12 16:30N 49°28' E 000°09'0 0.0
2014-Oct-12 15:33N 49°28' E 000°09'0 0.0
2014-Oct-12 14:32N 49°28' E 000°09'0 0.0
2014-Oct-12 13:32N 49°28' E 000°09'0 0.0
2014-Oct-12 12:31N 49°28' E 000°09'0 0.2
2014-Oct-12 11:33N 49°28' E 000°08'9 9.5
2014-Oct-12 10:34N 49°31' W 000°05'7 6.7
2014-Oct-12 09:33N 49°37' W 000°11'7 7.3
2014-Oct-12 08:32N 49°44' W 000°10'5210.4
2014-Oct-12 03:33N 50°32' E 000°20'1616.1
2014-Oct-12 02:33N 50°39' E 000°43'2215.8
2014-Oct-12 01:10N 50°55' E 001°08'915.5
2014-Oct-12 00:33N 51°01' E 001°19'1615.8
2014-Oct-11 23:34N 51°10' E 001°39'1817.7
2014-Oct-11 22:33N 51°26' E 001°52'1717.4
2014-Oct-11 21:33N 51°43' E 001°45'1413.8
2014-Oct-11 20:34N 51°55' E 001°34'9 9.0
2014-Oct-11 19:31N 51°57' E 001°19'0 0.0
2014-Oct-11 18:31N 51°57' E 001°19'0 0.0
2014-Oct-11 17:33N 51°57' E 001°19'0 0.0
2014-Oct-11 16:33N 51°57' E 001°19'0 0.0
2014-Oct-11 15:32N 51°57' E 001°19'0 0.0
2014-Oct-11 14:32N 51°57' E 001°19'0 0.0
2014-Oct-11 13:32N 51°57' E 001°19'0 0.0
2014-Oct-11 12:31N 51°57' E 001°19'0 0.0
2014-Oct-11 11:31N 51°57' E 001°19'0 0.0
2014-Oct-11 10:33N 51°57' E 001°19'0 0.0
2014-Oct-11 09:33N 51°57' E 001°19'0 0.0
2014-Oct-11 08:32N 51°57' E 001°19'0 0.0
2014-Oct-11 07:32N 51°57' E 001°19'0 0.0
2014-Oct-11 06:31N 51°57' E 001°19'0 0.0
2014-Oct-11 05:31N 51°57' E 001°19'0 0.0
2014-Oct-11 04:31N 51°57' E 001°19'0 0.0
2014-Oct-11 03:33N 51°57' E 001°19'0 0.0
2014-Oct-11 02:33N 51°57' E 001°19'0 0.0
2014-Oct-11 01:32N 51°57' E 001°19'0 0.0
2014-Oct-11 00:32N 51°57' E 001°19'0 0.0
2014-Oct-10 23:31N 51°57' E 001°19'2 2.3
2014-Oct-10 22:33N 51°56' E 001°22'1111.1
2014-Oct-10 21:33N 51°52' E 001°38'4 4.2
2014-Oct-10 20:33N 51°56' E 001°41'0 0.4
2014-Oct-10 19:32N 51°56' E 001°42'0 0.0
2014-Oct-10 18:31N 51°56' E 001°42'0 0.0
2014-Oct-10 17:31N 51°56' E 001°42'0 0.0
2014-Oct-10 16:33N 51°56' E 001°42'0 0.0
2014-Oct-10 15:33N 51°56' E 001°42'0 0.1
2014-Oct-10 14:32N 51°56' E 001°42'0 0.0
2014-Oct-10 13:32N 51°56' E 001°41'0 0.0
2014-Oct-10 12:31N 51°56' E 001°41'0 0.1
2014-Oct-10 11:31N 51°56' E 001°41'0 0.0
2014-Oct-10 10:31N 51°56' E 001°41'0 0.2
2014-Oct-10 09:33N 51°56' E 001°41'0 0.0
2014-Oct-10 08:33N 51°56' E 001°41'0 0.1
2014-Oct-10 07:32N 51°56' E 001°41'0 0.3
2014-Oct-10 06:32N 51°56' E 001°42'0 0.0
2014-Oct-10 05:31N 51°56' E 001°42'0 0.0
2014-Oct-10 04:31N 51°56' E 001°42'0 0.0
2014-Oct-10 03:31N 51°56' E 001°42'0 0.0
2014-Oct-10 02:33N 51°56' E 001°42'0 0.0
2014-Oct-10 01:33N 51°56' E 001°42'0 0.0
2014-Oct-10 00:32N 51°56' E 001°42'0 0.1
2014-Oct-09 23:34N 51°56' E 001°41'0 0.1
2014-Oct-09 22:33N 51°56' E 001°41'2 1.5
2014-Oct-09 21:33N 51°55' E 001°40'1 0.9
2014-Oct-09 20:33N 51°55' E 001°41'1 0.6
2014-Oct-09 19:32N 51°56' E 001°42'0 0.1
2014-Oct-09 18:32N 51°56' E 001°41'0 0.0
2014-Oct-09 17:31N 51°56' E 001°42'0 0.0
2014-Oct-09 16:31N 51°56' E 001°42'0 0.1
2014-Oct-09 15:33N 51°56' E 001°41'0 0.0
2014-Oct-09 14:33N 51°56' E 001°41'4 4.1
2014-Oct-09 13:33N 51°56' E 001°48'1414.1
2014-Oct-09 12:34N 51°42' E 001°49'1414.4
2014-Oct-09 11:33N 51°28' E 001°57'1414.0
2014-Oct-09 10:33N 51°21' E 002°16'1211.9
2014-Oct-09 09:33N 51°23' E 002°35'1514.5
2014-Oct-09 08:33N 51°23' E 002°59'1817.8
2014-Oct-09 07:33N 51°25' E 003°27'1212.2
2014-Oct-09 06:33N 51°22' E 003°46'1111.0
2014-Oct-09 05:34N 51°23' E 004°03'9 8.7
2014-Oct-09 04:34N 51°21' E 004°17'0 0.0
2014-Oct-09 03:34N 51°21' E 004°17'1 0.7
2014-Oct-09 02:32N 51°20' E 004°18'2 1.7
2014-Oct-09 01:33N 51°20' E 004°20'0 0.0
2014-Oct-09 00:32N 51°20' E 004°20'0 0.0
2014-Oct-08 23:32N 51°20' E 004°20'0 0.0
2014-Oct-08 22:31N 51°20' E 004°20'0 0.0
2014-Oct-08 21:25N 51°20' E 004°20'0 0.0
2014-Oct-08 20:34N 51°20' E 004°20'0 0.0
2014-Oct-08 19:33N 51°20' E 004°20'0 0.0
2014-Oct-08 18:33N 51°20' E 004°20'0 0.0
2014-Oct-08 17:32N 51°20' E 004°20'0 0.0
2014-Oct-08 16:29N 51°20' E 004°20'0 0.0
2014-Oct-08 15:25N 51°20' E 004°20'0 0.0
2014-Oct-08 14:17N 51°20' E 004°20'0 0.0
2014-Oct-08 13:06N 51°20' E 004°20'0 0.0
2014-Oct-08 12:21N 51°20' E 004°20'0 0.0
2014-Oct-08 11:33N 51°20' E 004°20'0 0.0
2014-Oct-08 10:29N 51°20' E 004°20'0 0.0
2014-Oct-08 09:32N 51°20' E 004°20'0 0.0
2014-Oct-08 08:31N 51°20' E 004°20'0 0.0
2014-Oct-08 07:31N 51°20' E 004°20'0 0.0
2014-Oct-08 06:34N 51°20' E 004°20'0 0.0
2014-Oct-08 05:33N 51°20' E 004°20'0 0.0
2014-Oct-08 04:33N 51°20' E 004°20'0 0.0
2014-Oct-08 03:32N 51°20' E 004°20'0 0.0
2014-Oct-08 02:32N 51°20' E 004°20'0 0.0
2014-Oct-08 01:31N 51°20' E 004°20'0 0.0
2014-Oct-08 00:34N 51°20' E 004°20'0 0.0
2014-Oct-07 23:33N 51°20' E 004°20'0 0.0
2014-Oct-07 22:33N 51°20' E 004°20'2 2.3
2014-Oct-07 21:34N 51°21' E 004°17'1 0.6
2014-Oct-07 20:34N 51°21' E 004°16'1 1.0
2014-Oct-07 19:34N 51°21' E 004°15'2 2.1
2014-Oct-07 18:34N 51°23' E 004°13'6 5.8
2014-Oct-07 17:33N 51°22' E 004°03'4 4.3
2014-Oct-07 16:34N 51°23' E 003°57'9 9.1
2014-Oct-07 15:34N 51°25' E 003°42'9 9.1
2014-Oct-07 14:33N 51°25' E 003°28'1615.6
2014-Oct-07 13:33N 51°25' E 003°03'1312.9
2014-Oct-07 12:33N 51°37' E 003°10'1010.1
2014-Oct-07 11:33N 51°47' E 003°13'6 6.2
2014-Oct-07 10:32N 51°52' E 003°18'4 4.0
2014-Oct-07 09:31N 51°56' E 003°20'16 7.8
2014-Oct-07 07:32N 52°10' E 003°30'1313.1
2014-Oct-07 06:32N 52°23' E 003°34'1413.8
2014-Oct-07 05:32N 52°37' E 003°39'1313.6
2014-Oct-07 04:33N 52°49' E 003°46'1313.1
2014-Oct-07 03:33N 52°59' E 003°60'1313.1
2014-Oct-07 02:33N 53°08' E 004°17'1312.2
2014-Oct-07 01:29N 53°19' E 004°29'1313.8
2014-Oct-07 00:33N 53°31' E 004°36'1514.2
2014-Oct-06 23:30N 53°45' E 004°44'1314.1
2014-Oct-06 22:33N 53°57' E 004°51'1414.0
2014-Oct-06 21:32N 54°11' E 004°60'27613.0
2014-Oct-06 00:20N 57°48' E 010°02'1012.5
2014-Oct-05 23:33N 57°48' E 010°21'1211.7
2014-Oct-05 22:33N 57°48' E 010°43'1413.9
2014-Oct-05 21:33N 57°39' E 011°03'1716.7
2014-Oct-05 20:33N 57°28' E 011°26'1313.3
2014-Oct-05 19:33N 57°16' E 011°34'1414.1
2014-Oct-05 18:33N 57°02' E 011°43'1513.6
2014-Oct-05 17:28N 56°48' E 011°52'1011.0
2014-Oct-05 16:33N 56°40' E 011°42'11711.2
2014-Oct-05 06:08N 54°47' E 010°49'712.2
2014-Oct-05 05:33N 54°40' E 010°48'1312.7
2014-Oct-05 04:34N 54°36' E 011°08'1313.1
2014-Oct-05 03:33N 54°31' E 011°29'1313.4
2014-Oct-05 02:33N 54°26' E 011°50'1212.4
2014-Oct-05 01:34N 54°28' E 012°12'1212.1
2014-Oct-05 00:33N 54°38' E 012°21'1312.6
2014-Oct-04 23:33N 54°45' E 012°40'1312.6
2014-Oct-04 22:33N 54°51' E 012°59'1412.8
2014-Oct-04 21:29N 54°56' E 013°21'1212.7
2014-Oct-04 20:33N 55°00' E 013°40'1313.3
2014-Oct-04 19:33N 55°04' E 014°03'1212.4
2014-Oct-04 18:33N 55°14' E 014°15'1312.6
2014-Oct-04 17:33N 55°23' E 014°31'1212.4
2014-Oct-04 16:33N 55°30' E 014°49'1312.9
2014-Oct-04 15:33N 55°35' E 015°10'1312.5
2014-Oct-04 14:33N 55°39' E 015°31'1312.7
2014-Oct-04 13:33N 55°42' E 015°53'1312.9
2014-Oct-04 12:33N 55°46' E 016°15'1312.6
2014-Oct-04 11:33N 55°49' E 016°36'1212.4
2014-Oct-04 10:33N 55°52' E 016°57'1312.6
2014-Oct-04 09:33N 55°55' E 017°19'1212.5
2014-Oct-04 08:33N 55°60' E 017°40'1212.4
2014-Oct-04 07:33N 56°06' E 017°59'1515.4
2014-Oct-04 06:33N 56°14' E 018°23'2019.8
2014-Oct-04 05:33N 56°27' E 018°50'1616.1
2014-Oct-04 04:33N 56°41' E 019°04'1813.5
2014-Oct-04 03:14N 56°56' E 019°20'19812.6
2014-Oct-03 11:31N 59°35' E 023°06'1313.6
2014-Oct-03 10:33N 59°39' E 023°30'1413.8
2014-Oct-03 09:33N 59°43' E 023°57'1413.7
2014-Oct-03 08:33N 59°47' E 024°23'1413.7
2014-Oct-03 07:33N 59°50' E 024°49'1613.5
2014-Oct-03 06:20N 59°52' E 025°22'2713.7
2014-Oct-03 04:20N 59°59' E 026°15'  
Track history (hours):
 
Tides and Currents Weather Stations Pressure Air Temp Water Temp Dewpoint Dewpoint Depression Visibility Wind Speed Wind Dir Waves Ship Positions

Hebe

Last reported at 2014-Oct-13 03:33 UTC. Time now 2014-Oct-25 20:39 UTC.
Position N 49°40' W 000°30'.
Warning: this ship's position is 12 days out of date.

Length 220 m; draft 11.5 m.

Type: Ship. MMSI: 636091480.

Date/timePositionNaut miles runAvg speedWind from/ knotsBaromVisibWave heightAir tempDewpointWater temp
2014-Oct-13 03:33N 49°40' W 000°30'1817.6
2014-Oct-13 02:33N 49°31' W 000°07'1010.4
2014-Oct-13 01:33N 49°28' E 000°08'0 0.3
2014-Oct-13 00:31N 49°28' E 000°09'0 0.0
2014-Oct-12 23:33N 49°28' E 000°09'0 0.0
2014-Oct-12 22:33N 49°28' E 000°09'0 0.0
2014-Oct-12 21:32N 49°28' E 000°09'0 0.0
2014-Oct-12 20:32N 49°28' E 000°09'0 0.0
2014-Oct-12 19:31N 49°28' E 000°09'0 0.0
2014-Oct-12 18:31N 49°28' E 000°09'0 0.0
2014-Oct-12 17:34N 49°28' E 000°09'0 0.0
2014-Oct-12 16:30N 49°28' E 000°09'0 0.0
2014-Oct-12 15:33N 49°28' E 000°09'0 0.0
2014-Oct-12 14:32N 49°28' E 000°09'0 0.0
2014-Oct-12 13:32N 49°28' E 000°09'0 0.0
2014-Oct-12 12:31N 49°28' E 000°09'0 0.2
2014-Oct-12 11:33N 49°28' E 000°08'9 9.5
2014-Oct-12 10:34N 49°31' W 000°05'7 6.7
2014-Oct-12 09:33N 49°37' W 000°11'7 7.3
2014-Oct-12 08:32N 49°44' W 000°10'5210.4
2014-Oct-12 03:33N 50°32' E 000°20'1616.1
2014-Oct-12 02:33N 50°39' E 000°43'2215.8
2014-Oct-12 01:10N 50°55' E 001°08'915.5
2014-Oct-12 00:33N 51°01' E 001°19'1615.8
2014-Oct-11 23:34N 51°10' E 001°39'1817.7
2014-Oct-11 22:33N 51°26' E 001°52'1717.4
2014-Oct-11 21:33N 51°43' E 001°45'1413.8
2014-Oct-11 20:34N 51°55' E 001°34'9 9.0
2014-Oct-11 19:31N 51°57' E 001°19'0 0.0
2014-Oct-11 18:31N 51°57' E 001°19'0 0.0
2014-Oct-11 17:33N 51°57' E 001°19'0 0.0
2014-Oct-11 16:33N 51°57' E 001°19'0 0.0
2014-Oct-11 15:32N 51°57' E 001°19'0 0.0
2014-Oct-11 14:32N 51°57' E 001°19'0 0.0
2014-Oct-11 13:32N 51°57' E 001°19'0 0.0
2014-Oct-11 12:31N 51°57' E 001°19'0 0.0
2014-Oct-11 11:31N 51°57' E 001°19'0 0.0
2014-Oct-11 10:33N 51°57' E 001°19'0 0.0
2014-Oct-11 09:33N 51°57' E 001°19'0 0.0
2014-Oct-11 08:32N 51°57' E 001°19'0 0.0
2014-Oct-11 07:32N 51°57' E 001°19'0 0.0
2014-Oct-11 06:31N 51°57' E 001°19'0 0.0
2014-Oct-11 05:31N 51°57' E 001°19'0 0.0
2014-Oct-11 04:31N 51°57' E 001°19'0 0.0
2014-Oct-11 03:33N 51°57' E 001°19'0 0.0
2014-Oct-11 02:33N 51°57' E 001°19'0 0.0
2014-Oct-11 01:32N 51°57' E 001°19'0 0.0
2014-Oct-11 00:32N 51°57' E 001°19'0 0.0
2014-Oct-10 23:31N 51°57' E 001°19'2 2.3
2014-Oct-10 22:33N 51°56' E 001°22'1111.1
2014-Oct-10 21:33N 51°52' E 001°38'4 4.2
2014-Oct-10 20:33N 51°56' E 001°41'0 0.4
2014-Oct-10 19:32N 51°56' E 001°42'0 0.0
2014-Oct-10 18:31N 51°56' E 001°42'0 0.0
2014-Oct-10 17:31N 51°56' E 001°42'0 0.0
2014-Oct-10 16:33N 51°56' E 001°42'0 0.0
2014-Oct-10 15:33N 51°56' E 001°42'0 0.1
2014-Oct-10 14:32N 51°56' E 001°42'0 0.0
2014-Oct-10 13:32N 51°56' E 001°41'0 0.0
2014-Oct-10 12:31N 51°56' E 001°41'0 0.1
2014-Oct-10 11:31N 51°56' E 001°41'0 0.0
2014-Oct-10 10:31N 51°56' E 001°41'0 0.2
2014-Oct-10 09:33N 51°56' E 001°41'0 0.0
2014-Oct-10 08:33N 51°56' E 001°41'0 0.1
2014-Oct-10 07:32N 51°56' E 001°41'0 0.3
2014-Oct-10 06:32N 51°56' E 001°42'0 0.0
2014-Oct-10 05:31N 51°56' E 001°42'0 0.0
2014-Oct-10 04:31N 51°56' E 001°42'0 0.0
2014-Oct-10 03:31N 51°56' E 001°42'0 0.0
2014-Oct-10 02:33N 51°56' E 001°42'0 0.0
2014-Oct-10 01:33N 51°56' E 001°42'0 0.0
2014-Oct-10 00:32N 51°56' E 001°42'0 0.1
2014-Oct-09 23:34N 51°56' E 001°41'0 0.1
2014-Oct-09 22:33N 51°56' E 001°41'2 1.5
2014-Oct-09 21:33N 51°55' E 001°40'1 0.9
2014-Oct-09 20:33N 51°55' E 001°41'1 0.6
2014-Oct-09 19:32N 51°56' E 001°42'0 0.1
2014-Oct-09 18:32N 51°56' E 001°41'0 0.0
2014-Oct-09 17:31N 51°56' E 001°42'0 0.0
2014-Oct-09 16:31N 51°56' E 001°42'0 0.1
2014-Oct-09 15:33N 51°56' E 001°41'0 0.0
2014-Oct-09 14:33N 51°56' E 001°41'4 4.1
2014-Oct-09 13:33N 51°56' E 001°48'1414.1
2014-Oct-09 12:34N 51°42' E 001°49'1414.4
2014-Oct-09 11:33N 51°28' E 001°57'1414.0
2014-Oct-09 10:33N 51°21' E 002°16'1211.9
2014-Oct-09 09:33N 51°23' E 002°35'1514.5
2014-Oct-09 08:33N 51°23' E 002°59'1817.8
2014-Oct-09 07:33N 51°25' E 003°27'1212.2
2014-Oct-09 06:33N 51°22' E 003°46'1111.0
2014-Oct-09 05:34N 51°23' E 004°03'9 8.7
2014-Oct-09 04:34N 51°21' E 004°17'0 0.0
2014-Oct-09 03:34N 51°21' E 004°17'1 0.7
2014-Oct-09 02:32N 51°20' E 004°18'2 1.7
2014-Oct-09 01:33N 51°20' E 004°20'0 0.0
2014-Oct-09 00:32N 51°20' E 004°20'0 0.0
2014-Oct-08 23:32N 51°20' E 004°20'0 0.0
2014-Oct-08 22:31N 51°20' E 004°20'0 0.0
2014-Oct-08 21:25N 51°20' E 004°20'0 0.0
2014-Oct-08 20:34N 51°20' E 004°20'0 0.0
2014-Oct-08 19:33N 51°20' E 004°20'0 0.0
2014-Oct-08 18:33N 51°20' E 004°20'0 0.0
2014-Oct-08 17:32N 51°20' E 004°20'0 0.0
2014-Oct-08 16:29N 51°20' E 004°20'0 0.0
2014-Oct-08 15:25N 51°20' E 004°20'0 0.0
2014-Oct-08 14:17N 51°20' E 004°20'0 0.0
2014-Oct-08 13:06N 51°20' E 004°20'0 0.0
2014-Oct-08 12:21N 51°20' E 004°20'0 0.0
2014-Oct-08 11:33N 51°20' E 004°20'0 0.0
2014-Oct-08 10:29N 51°20' E 004°20'0 0.0
2014-Oct-08 09:32N 51°20' E 004°20'0 0.0
2014-Oct-08 08:31N 51°20' E 004°20'0 0.0
2014-Oct-08 07:31N 51°20' E 004°20'0 0.0
2014-Oct-08 06:34N 51°20' E 004°20'0 0.0
2014-Oct-08 05:33N 51°20' E 004°20'0 0.0
2014-Oct-08 04:33N 51°20' E 004°20'0 0.0
2014-Oct-08 03:32N 51°20' E 004°20'0 0.0
2014-Oct-08 02:32N 51°20' E 004°20'0 0.0
2014-Oct-08 01:31N 51°20' E 004°20'0 0.0
2014-Oct-08 00:34N 51°20' E 004°20'0 0.0
2014-Oct-07 23:33N 51°20' E 004°20'0 0.0
2014-Oct-07 22:33N 51°20' E 004°20'2 2.3
2014-Oct-07 21:34N 51°21' E 004°17'1 0.6
2014-Oct-07 20:34N 51°21' E 004°16'1 1.0
2014-Oct-07 19:34N 51°21' E 004°15'2 2.1
2014-Oct-07 18:34N 51°23' E 004°13'6 5.8
2014-Oct-07 17:33N 51°22' E 004°03'4 4.3
2014-Oct-07 16:34N 51°23' E 003°57'9 9.1
2014-Oct-07 15:34N 51°25' E 003°42'9 9.1
2014-Oct-07 14:33N 51°25' E 003°28'1615.6
2014-Oct-07 13:33N 51°25' E 003°03'1312.9
2014-Oct-07 12:33N 51°37' E 003°10'1010.1
2014-Oct-07 11:33N 51°47' E 003°13'6 6.2
2014-Oct-07 10:32N 51°52' E 003°18'4 4.0
2014-Oct-07 09:31N 51°56' E 003°20'16 7.8
2014-Oct-07 07:32N 52°10' E 003°30'1313.1
2014-Oct-07 06:32N 52°23' E 003°34'1413.8
2014-Oct-07 05:32N 52°37' E 003°39'1313.6
2014-Oct-07 04:33N 52°49' E 003°46'1313.1
2014-Oct-07 03:33N 52°59' E 003°60'1313.1
2014-Oct-07 02:33N 53°08' E 004°17'1312.2
2014-Oct-07 01:29N 53°19' E 004°29'1313.8
2014-Oct-07 00:33N 53°31' E 004°36'1514.2
2014-Oct-06 23:30N 53°45' E 004°44'1314.1
2014-Oct-06 22:33N 53°57' E 004°51'1414.0
2014-Oct-06 21:32N 54°11' E 004°60'27613.0
2014-Oct-06 00:20N 57°48' E 010°02'1012.5
2014-Oct-05 23:33N 57°48' E 010°21'1211.7
2014-Oct-05 22:33N 57°48' E 010°43'1413.9
2014-Oct-05 21:33N 57°39' E 011°03'1716.7
2014-Oct-05 20:33N 57°28' E 011°26'1313.3
2014-Oct-05 19:33N 57°16' E 011°34'1414.1
2014-Oct-05 18:33N 57°02' E 011°43'1513.6
2014-Oct-05 17:28N 56°48' E 011°52'1011.0
2014-Oct-05 16:33N 56°40' E 011°42'11711.2
2014-Oct-05 06:08N 54°47' E 010°49'712.2
2014-Oct-05 05:33N 54°40' E 010°48'1312.7
2014-Oct-05 04:34N 54°36' E 011°08'1313.1
2014-Oct-05 03:33N 54°31' E 011°29'1313.4
2014-Oct-05 02:33N 54°26' E 011°50'1212.4
2014-Oct-05 01:34N 54°28' E 012°12'1212.1
2014-Oct-05 00:33N 54°38' E 012°21'1312.6
2014-Oct-04 23:33N 54°45' E 012°40'1312.6
2014-Oct-04 22:33N 54°51' E 012°59'1412.8
2014-Oct-04 21:29N 54°56' E 013°21'1212.7
2014-Oct-04 20:33N 55°00' E 013°40'1313.3
2014-Oct-04 19:33N 55°04' E 014°03'1212.4
2014-Oct-04 18:33N 55°14' E 014°15'1312.6
2014-Oct-04 17:33N 55°23' E 014°31'1212.4
2014-Oct-04 16:33N 55°30' E 014°49'1312.9
2014-Oct-04 15:33N 55°35' E 015°10'1312.5
2014-Oct-04 14:33N 55°39' E 015°31'1312.7
2014-Oct-04 13:33N 55°42' E 015°53'1312.9
2014-Oct-04 12:33N 55°46' E 016°15'1312.6
2014-Oct-04 11:33N 55°49' E 016°36'1212.4
2014-Oct-04 10:33N 55°52' E 016°57'1312.6
2014-Oct-04 09:33N 55°55' E 017°19'1212.5
2014-Oct-04 08:33N 55°60' E 017°40'1212.4
2014-Oct-04 07:33N 56°06' E 017°59'1515.4
2014-Oct-04 06:33N 56°14' E 018°23'2019.8
2014-Oct-04 05:33N 56°27' E 018°50'1616.1
2014-Oct-04 04:33N 56°41' E 019°04'1813.5
2014-Oct-04 03:14N 56°56' E 019°20'19812.6
2014-Oct-03 11:31N 59°35' E 023°06'1313.6
2014-Oct-03 10:33N 59°39' E 023°30'1413.8
2014-Oct-03 09:33N 59°43' E 023°57'1413.7
2014-Oct-03 08:33N 59°47' E 024°23'1413.7
2014-Oct-03 07:33N 59°50' E 024°49'1613.5
2014-Oct-03 06:20N 59°52' E 025°22'2713.7
2014-Oct-03 04:20N 59°59' E 026°15'  

Dump ship's entire track history